sensor_id;sensor_type;location;lat;lon;timestamp;P1;durP1;ratioP1;P2;durP2;ratioP2
15258;SDS011;34462;51.368;12.364;2024-02-16T00:00:18;5.97;;;4.67;;
15258;SDS011;34462;51.368;12.364;2024-02-16T00:02:47;7.23;;;4.93;;
15258;SDS011;34462;51.368;12.364;2024-02-16T00:05:15;5.27;;;4.77;;
15258;SDS011;34462;51.368;12.364;2024-02-16T00:07:44;5.60;;;4.83;;
15258;SDS011;34462;51.368;12.364;2024-02-16T00:10:13;5.33;;;4.80;;
15258;SDS011;34462;51.368;12.364;2024-02-16T00:12:42;4.80;;;4.30;;
15258;SDS011;34462;51.368;12.364;2024-02-16T00:15:11;4.50;;;4.07;;
15258;SDS011;34462;51.368;12.364;2024-02-16T00:17:39;5.37;;;4.37;;
15258;SDS011;34462;51.368;12.364;2024-02-16T00:20:08;5.00;;;4.23;;
15258;SDS011;34462;51.368;12.364;2024-02-16T00:22:39;5.60;;;4.10;;
15258;SDS011;34462;51.368;12.364;2024-02-16T00:25:07;6.87;;;5.43;;
15258;SDS011;34462;51.368;12.364;2024-02-16T00:27:36;5.20;;;4.70;;
15258;SDS011;34462;51.368;12.364;2024-02-16T00:30:07;4.47;;;4.07;;
15258;SDS011;34462;51.368;12.364;2024-02-16T00:32:37;5.00;;;3.67;;
15258;SDS011;34462;51.368;12.364;2024-02-16T00:35:06;4.90;;;4.40;;
15258;SDS011;34462;51.368;12.364;2024-02-16T00:37:35;5.80;;;4.30;;
15258;SDS011;34462;51.368;12.364;2024-02-16T00:40:04;4.37;;;3.97;;
15258;SDS011;34462;51.368;12.364;2024-02-16T00:42:35;4.20;;;3.80;;
15258;SDS011;34462;51.368;12.364;2024-02-16T00:45:03;4.30;;;3.63;;
15258;SDS011;34462;51.368;12.364;2024-02-16T00:47:34;4.27;;;3.87;;
15258;SDS011;34462;51.368;12.364;2024-02-16T00:50:02;5.20;;;4.00;;
15258;SDS011;34462;51.368;12.364;2024-02-16T00:52:35;3.67;;;3.37;;
15258;SDS011;34462;51.368;12.364;2024-02-16T00:55:03;4.63;;;4.10;;
15258;SDS011;34462;51.368;12.364;2024-02-16T00:57:32;4.57;;;4.10;;
15258;SDS011;34462;51.368;12.364;2024-02-16T01:00:01;5.57;;;4.30;;
15258;SDS011;34462;51.368;12.364;2024-02-16T01:02:30;5.43;;;4.17;;
15258;SDS011;34462;51.368;12.364;2024-02-16T01:05:01;4.00;;;3.70;;
15258;SDS011;34462;51.368;12.364;2024-02-16T01:07:30;5.43;;;4.13;;
15258;SDS011;34462;51.368;12.364;2024-02-16T01:09:59;4.30;;;3.90;;
15258;SDS011;34462;51.368;12.364;2024-02-16T01:12:29;5.97;;;4.10;;
15258;SDS011;34462;51.368;12.364;2024-02-16T01:14:58;5.23;;;4.20;;
15258;SDS011;34462;51.368;12.364;2024-02-16T01:17:27;5.27;;;3.97;;
15258;SDS011;34462;51.368;12.364;2024-02-16T01:19:56;4.50;;;4.07;;
15258;SDS011;34462;51.368;12.364;2024-02-16T01:22:26;4.70;;;4.20;;
15258;SDS011;34462;51.368;12.364;2024-02-16T01:24:55;4.20;;;3.80;;
15258;SDS011;34462;51.368;12.364;2024-02-16T01:27:23;4.00;;;3.70;;
15258;SDS011;34462;51.368;12.364;2024-02-16T01:29:54;5.13;;;4.03;;
15258;SDS011;34462;51.368;12.364;2024-02-16T01:32:24;4.23;;;3.80;;
15258;SDS011;34462;51.368;12.364;2024-02-16T01:34:53;4.67;;;4.17;;
15258;SDS011;34462;51.368;12.364;2024-02-16T01:37:23;4.17;;;3.77;;
15258;SDS011;34462;51.368;12.364;2024-02-16T01:39:55;3.57;;;3.20;;
15258;SDS011;34462;51.368;12.364;2024-02-16T01:42:23;4.43;;;4.00;;
15258;SDS011;34462;51.368;12.364;2024-02-16T01:44:51;5.00;;;3.63;;
15258;SDS011;34462;51.368;12.364;2024-02-16T01:47:19;5.40;;;3.77;;
15258;SDS011;34462;51.368;12.364;2024-02-16T01:49:48;4.10;;;3.70;;
15258;SDS011;34462;51.368;12.364;2024-02-16T01:52:16;4.27;;;3.80;;
15258;SDS011;34462;51.368;12.364;2024-02-16T01:54:47;6.20;;;3.90;;
15258;SDS011;34462;51.368;12.364;2024-02-16T01:57:15;5.63;;;4.43;;
15258;SDS011;34462;51.368;12.364;2024-02-16T01:59:44;4.73;;;3.73;;
15258;SDS011;34462;51.368;12.364;2024-02-16T02:02:13;4.13;;;3.70;;
15258;SDS011;34462;51.368;12.364;2024-02-16T02:04:41;4.97;;;3.70;;
15258;SDS011;34462;51.368;12.364;2024-02-16T02:07:13;5.00;;;4.00;;
15258;SDS011;34462;51.368;12.364;2024-02-16T02:09:42;6.70;;;4.40;;
15258;SDS011;34462;51.368;12.364;2024-02-16T02:12:12;4.57;;;3.90;;
15258;SDS011;34462;51.368;12.364;2024-02-16T02:14:40;5.43;;;3.40;;
15258;SDS011;34462;51.368;12.364;2024-02-16T02:17:09;5.03;;;4.40;;
15258;SDS011;34462;51.368;12.364;2024-02-16T02:19:37;5.67;;;4.37;;
15258;SDS011;34462;51.368;12.364;2024-02-16T02:22:13;5.00;;;4.23;;
15258;SDS011;34462;51.368;12.364;2024-02-16T02:24:45;6.27;;;4.40;;
15258;SDS011;34462;51.368;12.364;2024-02-16T02:27:15;4.37;;;3.97;;
15258;SDS011;34462;51.368;12.364;2024-02-16T02:29:43;5.23;;;4.10;;
15258;SDS011;34462;51.368;12.364;2024-02-16T02:32:11;5.00;;;4.50;;
15258;SDS011;34462;51.368;12.364;2024-02-16T02:34:40;5.47;;;4.10;;
15258;SDS011;34462;51.368;12.364;2024-02-16T02:37:09;5.63;;;4.10;;
15258;SDS011;34462;51.368;12.364;2024-02-16T02:39:40;4.10;;;3.70;;
15258;SDS011;34462;51.368;12.364;2024-02-16T02:42:10;3.87;;;3.53;;
15258;SDS011;34462;51.368;12.364;2024-02-16T02:44:39;4.17;;;3.70;;
15258;SDS011;34462;51.368;12.364;2024-02-16T02:47:10;4.43;;;4.00;;
15258;SDS011;34462;51.368;12.364;2024-02-16T02:49:38;4.53;;;3.83;;
15258;SDS011;34462;51.368;12.364;2024-02-16T02:52:07;4.37;;;3.97;;
15258;SDS011;34462;51.368;12.364;2024-02-16T02:54:35;4.90;;;3.90;;
15258;SDS011;34462;51.368;12.364;2024-02-16T02:57:05;5.03;;;4.30;;
15258;SDS011;34462;51.368;12.364;2024-02-16T02:59:33;4.93;;;4.10;;
15258;SDS011;34462;51.368;12.364;2024-02-16T03:02:05;4.90;;;3.93;;
15258;SDS011;34462;51.368;12.364;2024-02-16T03:04:35;4.80;;;3.70;;
15258;SDS011;34462;51.368;12.364;2024-02-16T03:07:03;3.60;;;3.30;;
15258;SDS011;34462;51.368;12.364;2024-02-16T03:09:31;3.40;;;3.10;;
15258;SDS011;34462;51.368;12.364;2024-02-16T03:12:00;3.87;;;3.40;;
15258;SDS011;34462;51.368;12.364;2024-02-16T03:14:30;4.00;;;3.60;;
15258;SDS011;34462;51.368;12.364;2024-02-16T03:16:58;4.10;;;3.57;;
15258;SDS011;34462;51.368;12.364;2024-02-16T03:19:26;3.37;;;3.07;;
15258;SDS011;34462;51.368;12.364;2024-02-16T03:21:55;4.03;;;3.40;;
15258;SDS011;34462;51.368;12.364;2024-02-16T03:24:23;3.97;;;3.50;;
15258;SDS011;34462;51.368;12.364;2024-02-16T03:26:51;6.60;;;3.60;;
15258;SDS011;34462;51.368;12.364;2024-02-16T03:29:19;3.77;;;3.40;;
15258;SDS011;34462;51.368;12.364;2024-02-16T03:31:49;4.10;;;3.70;;
15258;SDS011;34462;51.368;12.364;2024-02-16T03:34:17;4.53;;;3.53;;
15258;SDS011;34462;51.368;12.364;2024-02-16T03:36:46;4.37;;;3.90;;
15258;SDS011;34462;51.368;12.364;2024-02-16T03:39:14;4.40;;;3.50;;
15258;SDS011;34462;51.368;12.364;2024-02-16T03:41:50;4.07;;;3.67;;
15258;SDS011;34462;51.368;12.364;2024-02-16T03:44:18;4.00;;;3.60;;
15258;SDS011;34462;51.368;12.364;2024-02-16T03:46:51;4.37;;;3.60;;
15258;SDS011;34462;51.368;12.364;2024-02-16T03:49:22;4.10;;;3.70;;
15258;SDS011;34462;51.368;12.364;2024-02-16T03:51:50;5.50;;;3.90;;
15258;SDS011;34462;51.368;12.364;2024-02-16T03:54:18;3.87;;;3.47;;
15258;SDS011;34462;51.368;12.364;2024-02-16T03:56:47;4.47;;;3.83;;
15258;SDS011;34462;51.368;12.364;2024-02-16T03:59:15;3.77;;;3.40;;
15258;SDS011;34462;51.368;12.364;2024-02-16T04:01:43;5.03;;;3.70;;
15258;SDS011;34462;51.368;12.364;2024-02-16T04:04:13;4.50;;;3.80;;
15258;SDS011;34462;51.368;12.364;2024-02-16T04:06:42;4.57;;;3.60;;
15258;SDS011;34462;51.368;12.364;2024-02-16T04:09:10;5.53;;;3.70;;
15258;SDS011;34462;51.368;12.364;2024-02-16T04:11:39;3.77;;;3.23;;
15258;SDS011;34462;51.368;12.364;2024-02-16T04:14:11;5.27;;;3.27;;
15258;SDS011;34462;51.368;12.364;2024-02-16T04:16:42;3.60;;;3.30;;
15258;SDS011;34462;51.368;12.364;2024-02-16T04:19:10;4.33;;;3.50;;
15258;SDS011;34462;51.368;12.364;2024-02-16T04:21:40;6.20;;;3.90;;
15258;SDS011;34462;51.368;12.364;2024-02-16T04:24:13;5.83;;;3.20;;
15258;SDS011;34462;51.368;12.364;2024-02-16T04:26:41;4.23;;;3.47;;
15258;SDS011;34462;51.368;12.364;2024-02-16T04:29:10;4.50;;;3.00;;
15258;SDS011;34462;51.368;12.364;2024-02-16T04:31:38;3.43;;;2.93;;
15258;SDS011;34462;51.368;12.364;2024-02-16T04:34:08;4.13;;;2.90;;
15258;SDS011;34462;51.368;12.364;2024-02-16T04:36:37;3.97;;;3.00;;
15258;SDS011;34462;51.368;12.364;2024-02-16T04:39:06;3.43;;;2.77;;
15258;SDS011;34462;51.368;12.364;2024-02-16T04:41:36;3.83;;;2.67;;
15258;SDS011;34462;51.368;12.364;2024-02-16T04:44:06;3.50;;;2.57;;
15258;SDS011;34462;51.368;12.364;2024-02-16T04:46:34;3.43;;;3.13;;
15258;SDS011;34462;51.368;12.364;2024-02-16T04:49:02;2.80;;;2.53;;
15258;SDS011;34462;51.368;12.364;2024-02-16T04:51:31;2.77;;;2.37;;
15258;SDS011;34462;51.368;12.364;2024-02-16T04:53:59;3.67;;;2.90;;
15258;SDS011;34462;51.368;12.364;2024-02-16T04:56:29;3.97;;;3.00;;
15258;SDS011;34462;51.368;12.364;2024-02-16T04:58:57;3.60;;;3.13;;
15258;SDS011;34462;51.368;12.364;2024-02-16T05:01:26;3.13;;;2.57;;
15258;SDS011;34462;51.368;12.364;2024-02-16T05:03:56;3.07;;;2.70;;
15258;SDS011;34462;51.368;12.364;2024-02-16T05:06:26;3.37;;;2.90;;
15258;SDS011;34462;51.368;12.364;2024-02-16T05:08:56;3.13;;;2.83;;
15258;SDS011;34462;51.368;12.364;2024-02-16T05:11:24;3.40;;;3.10;;
15258;SDS011;34462;51.368;12.364;2024-02-16T05:13:55;3.30;;;2.60;;
15258;SDS011;34462;51.368;12.364;2024-02-16T05:16:25;2.97;;;2.70;;
15258;SDS011;34462;51.368;12.364;2024-02-16T05:18:54;4.73;;;3.10;;
15258;SDS011;34462;51.368;12.364;2024-02-16T05:21:23;3.97;;;3.27;;
15258;SDS011;34462;51.368;12.364;2024-02-16T05:23:52;3.40;;;3.10;;
15258;SDS011;34462;51.368;12.364;2024-02-16T05:26:23;4.33;;;3.20;;
15258;SDS011;34462;51.368;12.364;2024-02-16T05:28:51;6.67;;;3.40;;
15258;SDS011;34462;51.368;12.364;2024-02-16T05:31:20;3.90;;;3.10;;
15258;SDS011;34462;51.368;12.364;2024-02-16T05:33:49;3.73;;;3.20;;
15258;SDS011;34462;51.368;12.364;2024-02-16T05:36:19;4.77;;;3.83;;
15258;SDS011;34462;51.368;12.364;2024-02-16T05:38:51;3.80;;;3.07;;
15258;SDS011;34462;51.368;12.364;2024-02-16T05:41:22;4.03;;;3.10;;
15258;SDS011;34462;51.368;12.364;2024-02-16T05:43:50;2.90;;;2.67;;
15258;SDS011;34462;51.368;12.364;2024-02-16T05:46:18;3.50;;;3.07;;
15258;SDS011;34462;51.368;12.364;2024-02-16T05:48:48;6.00;;;3.07;;
15258;SDS011;34462;51.368;12.364;2024-02-16T05:51:17;3.30;;;3.00;;
15258;SDS011;34462;51.368;12.364;2024-02-16T05:53:45;3.30;;;2.93;;
15258;SDS011;34462;51.368;12.364;2024-02-16T05:56:14;4.13;;;2.80;;
15258;SDS011;34462;51.368;12.364;2024-02-16T05:58:42;3.77;;;3.00;;
15258;SDS011;34462;51.368;12.364;2024-02-16T06:01:10;3.27;;;2.80;;
15258;SDS011;34462;51.368;12.364;2024-02-16T06:03:42;3.80;;;2.97;;
15258;SDS011;34462;51.368;12.364;2024-02-16T06:06:11;3.17;;;2.87;;
15258;SDS011;34462;51.368;12.364;2024-02-16T06:08:39;4.47;;;2.80;;
15258;SDS011;34462;51.368;12.364;2024-02-16T06:11:08;3.40;;;2.60;;
15258;SDS011;34462;51.368;12.364;2024-02-16T06:13:36;3.00;;;2.50;;
15258;SDS011;34462;51.368;12.364;2024-02-16T06:16:05;3.40;;;2.80;;
15258;SDS011;34462;51.368;12.364;2024-02-16T06:18:35;2.90;;;2.67;;
15258;SDS011;34462;51.368;12.364;2024-02-16T06:21:06;2.97;;;2.70;;
15258;SDS011;34462;51.368;12.364;2024-02-16T06:23:34;3.77;;;2.70;;
15258;SDS011;34462;51.368;12.364;2024-02-16T06:26:05;2.97;;;2.73;;
15258;SDS011;34462;51.368;12.364;2024-02-16T06:28:34;4.40;;;3.10;;
15258;SDS011;34462;51.368;12.364;2024-02-16T06:31:02;3.43;;;3.00;;
15258;SDS011;34462;51.368;12.364;2024-02-16T06:33:31;3.97;;;3.37;;
15258;SDS011;34462;51.368;12.364;2024-02-16T06:35:59;5.47;;;3.10;;
15258;SDS011;34462;51.368;12.364;2024-02-16T06:38:29;4.27;;;3.23;;
15258;SDS011;34462;51.368;12.364;2024-02-16T06:40:57;3.57;;;3.27;;
15258;SDS011;34462;51.368;12.364;2024-02-16T06:43:26;3.23;;;2.80;;
15258;SDS011;34462;51.368;12.364;2024-02-16T06:45:54;4.30;;;3.23;;
15258;SDS011;34462;51.368;12.364;2024-02-16T06:48:23;3.50;;;3.20;;
15258;SDS011;34462;51.368;12.364;2024-02-16T06:50:51;3.70;;;3.40;;
15258;SDS011;34462;51.368;12.364;2024-02-16T06:53:20;3.47;;;3.17;;
15258;SDS011;34462;51.368;12.364;2024-02-16T06:55:50;5.23;;;3.10;;
15258;SDS011;34462;51.368;12.364;2024-02-16T06:58:18;4.93;;;3.47;;
15258;SDS011;34462;51.368;12.364;2024-02-16T07:00:47;5.17;;;3.50;;
15258;SDS011;34462;51.368;12.364;2024-02-16T07:03:16;4.83;;;3.33;;
15258;SDS011;34462;51.368;12.364;2024-02-16T07:05:44;3.90;;;3.37;;
15258;SDS011;34462;51.368;12.364;2024-02-16T07:08:13;4.47;;;3.30;;
15258;SDS011;34462;51.368;12.364;2024-02-16T07:10:41;5.30;;;3.03;;
15258;SDS011;34462;51.368;12.364;2024-02-16T07:13:11;4.90;;;3.37;;
15258;SDS011;34462;51.368;12.364;2024-02-16T07:15:39;4.83;;;3.40;;
15258;SDS011;34462;51.368;12.364;2024-02-16T07:18:10;4.87;;;3.43;;
15258;SDS011;34462;51.368;12.364;2024-02-16T07:20:39;5.57;;;3.30;;
15258;SDS011;34462;51.368;12.364;2024-02-16T07:23:08;4.53;;;3.40;;
15258;SDS011;34462;51.368;12.364;2024-02-16T07:25:37;3.73;;;3.27;;
15258;SDS011;34462;51.368;12.364;2024-02-16T07:28:05;4.60;;;3.20;;
15258;SDS011;34462;51.368;12.364;2024-02-16T07:30:34;4.70;;;3.30;;
15258;SDS011;34462;51.368;12.364;2024-02-16T07:33:09;3.97;;;3.20;;
15258;SDS011;34462;51.368;12.364;2024-02-16T07:35:37;3.07;;;2.77;;
15258;SDS011;34462;51.368;12.364;2024-02-16T07:38:06;5.63;;;3.40;;
15258;SDS011;34462;51.368;12.364;2024-02-16T07:40:34;5.07;;;3.38;;
15258;SDS011;34462;51.368;12.364;2024-02-16T07:43:03;3.37;;;3.03;;
15258;SDS011;34462;51.368;12.364;2024-02-16T07:45:31;3.50;;;3.10;;
15258;SDS011;34462;51.368;12.364;2024-02-16T07:48:01;3.35;;;3.00;;
15258;SDS011;34462;51.368;12.364;2024-02-16T07:50:32;6.20;;;2.78;;
15258;SDS011;34462;51.368;12.364;2024-02-16T07:53:01;3.10;;;2.67;;
15258;SDS011;34462;51.368;12.364;2024-02-16T07:55:29;3.20;;;2.90;;
15258;SDS011;34462;51.368;12.364;2024-02-16T07:57:58;4.10;;;2.93;;
15258;SDS011;34462;51.368;12.364;2024-02-16T08:00:26;4.37;;;2.77;;
15258;SDS011;34462;51.368;12.364;2024-02-16T08:02:55;4.87;;;2.60;;
15258;SDS011;34462;51.368;12.364;2024-02-16T08:05:27;3.30;;;3.00;;
15258;SDS011;34462;51.368;12.364;2024-02-16T08:07:55;3.17;;;2.87;;
15258;SDS011;34462;51.368;12.364;2024-02-16T08:10:26;3.17;;;2.53;;
15258;SDS011;34462;51.368;12.364;2024-02-16T08:12:54;2.57;;;2.27;;
15258;SDS011;34462;51.368;12.364;2024-02-16T08:15:25;3.83;;;2.58;;
15258;SDS011;34462;51.368;12.364;2024-02-16T08:17:55;3.30;;;2.77;;
15258;SDS011;34462;51.368;12.364;2024-02-16T08:20:28;3.70;;;2.88;;
15258;SDS011;34462;51.368;12.364;2024-02-16T08:22:56;3.70;;;2.42;;
15258;SDS011;34462;51.368;12.364;2024-02-16T08:25:26;3.90;;;2.35;;
15258;SDS011;34462;51.368;12.364;2024-02-16T08:27:56;4.53;;;2.75;;
15258;SDS011;34462;51.368;12.364;2024-02-16T08:30:27;3.22;;;2.30;;
15258;SDS011;34462;51.368;12.364;2024-02-16T08:32:55;4.30;;;2.70;;
15258;SDS011;34462;51.368;12.364;2024-02-16T08:35:28;4.32;;;2.33;;
15258;SDS011;34462;51.368;12.364;2024-02-16T08:37:56;2.97;;;2.40;;
15258;SDS011;34462;51.368;12.364;2024-02-16T08:40:27;2.83;;;2.30;;
15258;SDS011;34462;51.368;12.364;2024-02-16T08:42:55;2.33;;;2.13;;
15258;SDS011;34462;51.368;12.364;2024-02-16T08:45:26;2.45;;;2.25;;
15258;SDS011;34462;51.368;12.364;2024-02-16T08:47:54;4.15;;;2.53;;
15258;SDS011;34462;51.368;12.364;2024-02-16T08:50:27;2.90;;;2.28;;
15258;SDS011;34462;51.368;12.364;2024-02-16T08:52:56;3.33;;;2.20;;
15258;SDS011;34462;51.368;12.364;2024-02-16T08:55:25;2.55;;;2.35;;
15258;SDS011;34462;51.368;12.364;2024-02-16T08:57:53;3.22;;;1.85;;
15258;SDS011;34462;51.368;12.364;2024-02-16T09:00:21;2.20;;;2.00;;
15258;SDS011;34462;51.368;12.364;2024-02-16T09:02:53;2.55;;;2.15;;
15258;SDS011;34462;51.368;12.364;2024-02-16T09:05:21;2.22;;;1.92;;
15258;SDS011;34462;51.368;12.364;2024-02-16T09:07:51;2.50;;;2.30;;
15258;SDS011;34462;51.368;12.364;2024-02-16T09:10:19;2.22;;;2.00;;
15258;SDS011;34462;51.368;12.364;2024-02-16T09:12:48;2.92;;;2.10;;
15258;SDS011;34462;51.368;12.364;2024-02-16T09:15:18;2.05;;;1.95;;
15258;SDS011;34462;51.368;12.364;2024-02-16T09:17:46;2.20;;;2.00;;
15258;SDS011;34462;51.368;12.364;2024-02-16T09:20:14;2.55;;;1.80;;
15258;SDS011;34462;51.368;12.364;2024-02-16T09:22:49;2.35;;;1.90;;
15258;SDS011;34462;51.368;12.364;2024-02-16T09:25:19;2.60;;;1.83;;
15258;SDS011;34462;51.368;12.364;2024-02-16T09:27:48;2.40;;;2.08;;
15258;SDS011;34462;51.368;12.364;2024-02-16T09:30:16;1.70;;;1.60;;
15258;SDS011;34462;51.368;12.364;2024-02-16T09:32:48;1.85;;;1.73;;
15258;SDS011;34462;51.368;12.364;2024-02-16T09:35:16;2.25;;;1.90;;
15258;SDS011;34462;51.368;12.364;2024-02-16T09:37:44;3.85;;;2.00;;
15258;SDS011;34462;51.368;12.364;2024-02-16T09:40:13;2.22;;;1.70;;
15258;SDS011;34462;51.368;12.364;2024-02-16T09:42:43;2.33;;;1.90;;
15258;SDS011;34462;51.368;12.364;2024-02-16T09:45:17;2.55;;;2.00;;
15258;SDS011;34462;51.368;12.364;2024-02-16T09:47:46;2.67;;;1.95;;
15258;SDS011;34462;51.368;12.364;2024-02-16T09:50:26;2.05;;;1.70;;
15258;SDS011;34462;51.368;12.364;2024-02-16T09:52:56;1.90;;;1.73;;
15258;SDS011;34462;51.368;12.364;2024-02-16T09:55:25;2.53;;;1.98;;
15258;SDS011;34462;51.368;12.364;2024-02-16T09:58:01;1.90;;;1.70;;
15258;SDS011;34462;51.368;12.364;2024-02-16T10:00:31;3.38;;;1.98;;
15258;SDS011;34462;51.368;12.364;2024-02-16T10:03:00;2.10;;;1.92;;
15258;SDS011;34462;51.368;12.364;2024-02-16T10:05:30;2.58;;;2.03;;
15258;SDS011;34462;51.368;12.364;2024-02-16T10:08:00;2.22;;;1.85;;
15258;SDS011;34462;51.368;12.364;2024-02-16T10:10:39;2.20;;;1.77;;
15258;SDS011;34462;51.368;12.364;2024-02-16T10:13:09;2.20;;;1.70;;
15258;SDS011;34462;51.368;12.364;2024-02-16T10:15:38;2.70;;;1.90;;
15258;SDS011;34462;51.368;12.364;2024-02-16T10:18:07;2.22;;;2.03;;
15258;SDS011;34462;51.368;12.364;2024-02-16T10:20:35;2.30;;;1.90;;
15258;SDS011;34462;51.368;12.364;2024-02-16T10:23:08;1.95;;;1.80;;
15258;SDS011;34462;51.368;12.364;2024-02-16T10:25:38;2.80;;;1.80;;
15258;SDS011;34462;51.368;12.364;2024-02-16T10:28:09;2.75;;;1.80;;
15258;SDS011;34462;51.368;12.364;2024-02-16T10:30:40;1.95;;;1.70;;
15258;SDS011;34462;51.368;12.364;2024-02-16T10:33:11;3.17;;;2.00;;
15258;SDS011;34462;51.368;12.364;2024-02-16T10:35:40;1.88;;;1.77;;
15258;SDS011;34462;51.368;12.364;2024-02-16T10:38:09;2.45;;;2.03;;
15258;SDS011;34462;51.368;12.364;2024-02-16T10:40:39;2.53;;;1.92;;
15258;SDS011;34462;51.368;12.364;2024-02-16T10:43:09;3.53;;;2.00;;
15258;SDS011;34462;51.368;12.364;2024-02-16T10:45:41;2.75;;;1.83;;
15258;SDS011;34462;51.368;12.364;2024-02-16T10:48:10;2.35;;;2.05;;
15258;SDS011;34462;51.368;12.364;2024-02-16T10:50:39;3.35;;;2.20;;
15258;SDS011;34462;51.368;12.364;2024-02-16T10:53:10;2.00;;;1.80;;
15258;SDS011;34462;51.368;12.364;2024-02-16T10:55:44;2.10;;;1.90;;
15258;SDS011;34462;51.368;12.364;2024-02-16T10:58:16;3.05;;;2.22;;
15258;SDS011;34462;51.368;12.364;2024-02-16T11:00:49;2.85;;;2.20;;
15258;SDS011;34462;51.368;12.364;2024-02-16T11:03:21;3.38;;;2.42;;
15258;SDS011;34462;51.368;12.364;2024-02-16T11:05:52;4.15;;;2.10;;
15258;SDS011;34462;51.368;12.364;2024-02-16T11:08:23;2.60;;;2.33;;
15258;SDS011;34462;51.368;12.364;2024-02-16T11:10:55;2.97;;;2.03;;
15258;SDS011;34462;51.368;12.364;2024-02-16T11:13:27;2.50;;;2.30;;
15258;SDS011;34462;51.368;12.364;2024-02-16T11:16:00;2.20;;;2.00;;
15258;SDS011;34462;51.368;12.364;2024-02-16T11:18:32;2.30;;;2.10;;
15258;SDS011;34462;51.368;12.364;2024-02-16T11:21:07;3.92;;;2.28;;
15258;SDS011;34462;51.368;12.364;2024-02-16T11:23:40;2.55;;;2.15;;
15258;SDS011;34462;51.368;12.364;2024-02-16T11:26:09;2.30;;;2.10;;
15258;SDS011;34462;51.368;12.364;2024-02-16T11:28:41;2.50;;;2.10;;
15258;SDS011;34462;51.368;12.364;2024-02-16T11:31:10;3.15;;;2.10;;
15258;SDS011;34462;51.368;12.364;2024-02-16T11:33:42;2.50;;;2.30;;
15258;SDS011;34462;51.368;12.364;2024-02-16T11:36:12;2.97;;;2.55;;
15258;SDS011;34462;51.368;12.364;2024-02-16T11:38:41;3.45;;;2.10;;
15258;SDS011;34462;51.368;12.364;2024-02-16T11:41:09;2.22;;;2.03;;
15258;SDS011;34462;51.368;12.364;2024-02-16T11:43:38;2.60;;;2.15;;
15258;SDS011;34462;51.368;12.364;2024-02-16T11:46:12;2.63;;;2.42;;
15258;SDS011;34462;51.368;12.364;2024-02-16T11:48:41;2.17;;;1.83;;
15258;SDS011;34462;51.368;12.364;2024-02-16T11:51:09;2.60;;;2.30;;
15258;SDS011;34462;51.368;12.364;2024-02-16T11:53:38;3.13;;;2.15;;
15258;SDS011;34462;51.368;12.364;2024-02-16T11:56:07;2.72;;;2.53;;
15258;SDS011;34462;51.368;12.364;2024-02-16T11:58:35;3.13;;;2.28;;
15258;SDS011;34462;51.368;12.364;2024-02-16T12:01:05;2.17;;;1.75;;
15258;SDS011;34462;51.368;12.364;2024-02-16T12:03:40;3.13;;;2.30;;
15258;SDS011;34462;51.368;12.364;2024-02-16T12:06:09;3.00;;;2.50;;
15258;SDS011;34462;51.368;12.364;2024-02-16T12:08:49;3.00;;;2.03;;
15258;SDS011;34462;51.368;12.364;2024-02-16T12:11:19;3.83;;;2.20;;
15258;SDS011;34462;51.368;12.364;2024-02-16T12:13:49;4.15;;;1.98;;
15258;SDS011;34462;51.368;12.364;2024-02-16T12:16:20;1.80;;;1.70;;
15258;SDS011;34462;51.368;12.364;2024-02-16T12:18:48;2.10;;;1.70;;
15258;SDS011;34462;51.368;12.364;2024-02-16T12:21:17;2.53;;;2.03;;
15258;SDS011;34462;51.368;12.364;2024-02-16T12:23:47;2.58;;;1.88;;
15258;SDS011;34462;51.368;12.364;2024-02-16T12:26:15;2.13;;;1.80;;
15258;SDS011;34462;51.368;12.364;2024-02-16T12:28:43;2.40;;;1.92;;
15258;SDS011;34462;51.368;12.364;2024-02-16T12:31:17;3.05;;;2.17;;
15258;SDS011;34462;51.368;12.364;2024-02-16T12:33:48;2.13;;;1.77;;
15258;SDS011;34462;51.368;12.364;2024-02-16T12:36:17;2.85;;;1.90;;
15258;SDS011;34462;51.368;12.364;2024-02-16T12:38:45;2.85;;;1.85;;
15258;SDS011;34462;51.368;12.364;2024-02-16T12:41:14;2.45;;;2.13;;
15258;SDS011;34462;51.368;12.364;2024-02-16T12:43:42;3.40;;;2.00;;
15258;SDS011;34462;51.368;12.364;2024-02-16T12:46:10;3.50;;;2.30;;
15258;SDS011;34462;51.368;12.364;2024-02-16T12:48:40;3.45;;;2.15;;
15258;SDS011;34462;51.368;12.364;2024-02-16T12:51:11;3.40;;;2.13;;
15258;SDS011;34462;51.368;12.364;2024-02-16T12:53:40;4.65;;;2.13;;
15258;SDS011;34462;51.368;12.364;2024-02-16T12:56:10;2.88;;;2.13;;
15258;SDS011;34462;51.368;12.364;2024-02-16T12:58:38;2.30;;;1.83;;
15258;SDS011;34462;51.368;12.364;2024-02-16T13:01:08;4.32;;;2.22;;
15258;SDS011;34462;51.368;12.364;2024-02-16T13:03:52;4.30;;;2.25;;
15258;SDS011;34462;51.368;12.364;2024-02-16T13:06:20;3.00;;;2.10;;
15258;SDS011;34462;51.368;12.364;2024-02-16T13:08:54;2.55;;;2.30;;
15258;SDS011;34462;51.368;12.364;2024-02-16T13:11:22;3.25;;;2.60;;
15258;SDS011;34462;51.368;12.364;2024-02-16T13:13:51;2.50;;;2.03;;
15258;SDS011;34462;51.368;12.364;2024-02-16T13:16:19;5.05;;;2.30;;
15258;SDS011;34462;51.368;12.364;2024-02-16T13:18:49;2.30;;;2.10;;
15258;SDS011;34462;51.368;12.364;2024-02-16T13:21:27;3.22;;;2.58;;
15258;SDS011;34462;51.368;12.364;2024-02-16T13:23:55;2.75;;;2.53;;
15258;SDS011;34462;51.368;12.364;2024-02-16T13:26:24;2.60;;;2.40;;
15258;SDS011;34462;51.368;12.364;2024-02-16T13:28:54;2.35;;;2.13;;
15258;SDS011;34462;51.368;12.364;2024-02-16T13:31:23;2.33;;;2.10;;
15258;SDS011;34462;51.368;12.364;2024-02-16T13:33:54;3.67;;;2.55;;
15258;SDS011;34462;51.368;12.364;2024-02-16T13:36:24;3.50;;;2.40;;
15258;SDS011;34462;51.368;12.364;2024-02-16T13:38:52;2.33;;;2.13;;
15258;SDS011;34462;51.368;12.364;2024-02-16T13:41:20;2.45;;;2.03;;
15258;SDS011;34462;51.368;12.364;2024-02-16T13:43:49;2.40;;;2.20;;
15258;SDS011;34462;51.368;12.364;2024-02-16T13:46:18;2.95;;;2.25;;
15258;SDS011;34462;51.368;12.364;2024-02-16T13:48:52;3.33;;;2.10;;
15258;SDS011;34462;51.368;12.364;2024-02-16T13:51:27;2.30;;;2.10;;
15258;SDS011;34462;51.368;12.364;2024-02-16T13:53:55;3.40;;;2.10;;
15258;SDS011;34462;51.368;12.364;2024-02-16T13:56:24;5.53;;;2.50;;
15258;SDS011;34462;51.368;12.364;2024-02-16T13:58:52;2.00;;;1.90;;
15258;SDS011;34462;51.368;12.364;2024-02-16T14:01:20;8.63;;;2.40;;
15258;SDS011;34462;51.368;12.364;2024-02-16T14:03:49;2.33;;;2.15;;
15258;SDS011;34462;51.368;12.364;2024-02-16T14:06:18;3.25;;;2.15;;
15258;SDS011;34462;51.368;12.364;2024-02-16T14:08:48;2.33;;;1.85;;
15258;SDS011;34462;51.368;12.364;2024-02-16T14:11:19;2.28;;;2.08;;
15258;SDS011;34462;51.368;12.364;2024-02-16T14:13:47;2.97;;;2.10;;
15258;SDS011;34462;51.368;12.364;2024-02-16T14:16:18;1.90;;;1.70;;
15258;SDS011;34462;51.368;12.364;2024-02-16T14:18:47;2.15;;;1.95;;
15258;SDS011;34462;51.368;12.364;2024-02-16T14:21:17;3.22;;;2.33;;
15258;SDS011;34462;51.368;12.364;2024-02-16T14:23:51;2.30;;;2.10;;
15258;SDS011;34462;51.368;12.364;2024-02-16T14:26:19;2.25;;;2.05;;
15258;SDS011;34462;51.368;12.364;2024-02-16T14:28:47;2.05;;;1.90;;
15258;SDS011;34462;51.368;12.364;2024-02-16T14:31:15;2.88;;;1.92;;
15258;SDS011;34462;51.368;12.364;2024-02-16T14:33:46;2.20;;;2.00;;
15258;SDS011;34462;51.368;12.364;2024-02-16T14:36:17;2.25;;;2.10;;
15258;SDS011;34462;51.368;12.364;2024-02-16T14:38:45;3.30;;;2.47;;
15258;SDS011;34462;51.368;12.364;2024-02-16T14:41:19;2.50;;;2.10;;
15258;SDS011;34462;51.368;12.364;2024-02-16T14:43:49;3.80;;;2.22;;
15258;SDS011;34462;51.368;12.364;2024-02-16T14:46:17;2.60;;;2.10;;